createdAt,value
2022-08-22T00:00:35.857Z,4120.5
2022-08-22T00:06:10.811Z,4119.7
2022-08-22T00:11:45.564Z,4120.7
2022-08-22T00:17:20.355Z,4121.8
2022-08-22T00:22:56.187Z,4122.7
2022-08-22T00:28:32.267Z,4119.3
2022-08-22T00:34:06.966Z,4119.3
2022-08-22T00:39:43.584Z,4120.2
2022-08-22T00:45:19.621Z,4120
2022-08-22T00:50:54.357Z,4119
2022-08-22T00:56:29.128Z,4117.2
2022-08-22T01:02:04.010Z,4118.8
2022-08-22T01:07:39.740Z,4119.3
2022-08-22T01:13:26.629Z,4119
2022-08-22T01:19:02.792Z,4118.8
2022-08-22T01:24:46.342Z,4116.8
2022-08-22T01:30:24.342Z,4118
2022-08-22T01:36:00.043Z,4117.5
2022-08-22T01:41:35.038Z,4118.8
2022-08-22T01:47:09.809Z,4116.8
2022-08-22T01:53:06.516Z,4119.8
2022-08-22T01:58:41.542Z,4119
2022-08-22T02:04:22.472Z,4115.3
2022-08-22T02:09:58.515Z,4116
2022-08-22T02:15:33.389Z,4115.3
2022-08-22T02:21:08.210Z,4115.3
2022-08-22T02:26:44.105Z,4113.1
2022-08-22T02:32:18.959Z,4115.1
2022-08-22T02:37:54.229Z,4113.1
2022-08-22T02:43:51.009Z,4111.5
2022-08-22T02:49:31.775Z,4115.6
2022-08-22T02:55:09.057Z,4115
2022-08-22T03:00:44.741Z,4112.1
2022-08-22T03:06:23.319Z,4111.3
2022-08-22T03:11:58.933Z,4110.8
2022-08-22T03:17:42.532Z,4113
2022-08-22T03:23:17.474Z,4109.9
2022-08-22T03:29:01.288Z,4109.6
2022-08-22T03:34:45.128Z,4112.1
2022-08-22T03:40:20.947Z,4111.6
2022-08-22T03:45:56.047Z,4109.3
2022-08-22T03:51:31.821Z,4114
2022-08-22T03:57:06.656Z,4110.1
2022-08-22T04:02:45.462Z,4109.6
2022-08-22T04:08:27.441Z,4111
2022-08-22T04:14:02.499Z,4108.8
2022-08-22T04:19:37.224Z,4109.4
2022-08-22T04:25:11.859Z,4108.3
2022-08-22T04:30:46.612Z,4109.8
2022-08-22T04:36:22.348Z,4106.8
2022-08-22T04:42:34.496Z,4105.6
2022-08-22T04:48:07.146Z,4109.3
2022-08-22T04:53:43.248Z,4104.9
2022-08-22T04:59:17.938Z,4104.1
2022-08-22T05:04:52.751Z,4108.8
2022-08-22T05:10:27.631Z,4106.1
2022-08-22T05:16:05.173Z,4104.4
2022-08-22T05:21:40.083Z,4103.6
2022-08-22T05:27:14.678Z,4105.8
2022-08-22T05:32:50.418Z,4104.9
2022-08-22T05:38:25.261Z,4101.4
2022-08-22T05:44:21.687Z,4101.1
2022-08-22T05:49:54.384Z,4104.6
2022-08-22T05:55:29.551Z,4116
2022-08-22T06:01:05.430Z,4110.5
2022-08-22T06:06:41.270Z,4117.5
2022-08-22T06:12:24.188Z,4114.5
2022-08-22T06:18:01.499Z,4118.5
2022-08-22T06:23:36.421Z,4112.6
2022-08-22T06:29:11.388Z,4120.3
2022-08-22T06:34:47.158Z,4121
2022-08-22T06:40:23.198Z,4120.3
2022-08-22T06:45:58.539Z,4119.5
2022-08-22T06:51:33.383Z,4120
2022-08-22T06:57:08.207Z,4126.2
2022-08-22T07:02:43.466Z,4127.5
2022-08-22T07:08:18.503Z,4129
2022-08-22T07:13:54.615Z,4137.2
2022-08-22T07:19:29.632Z,4139.3
2022-08-22T07:25:04.441Z,4135.9
2022-08-22T07:30:42.753Z,4134.7
2022-08-22T07:36:17.558Z,4137.4
2022-08-22T07:42:14.061Z,4140.8
2022-08-22T07:47:54.946Z,4150.3
2022-08-22T07:53:30.399Z,4155.5
2022-08-22T07:59:14.341Z,4166.2
2022-08-22T08:04:53.880Z,4161
2022-08-22T08:10:29.243Z,4166.2
2022-08-22T08:16:05.142Z,4168.1
2022-08-22T08:21:40.847Z,4160
2022-08-22T08:27:16.917Z,4161.7
2022-08-22T08:33:27.522Z,4165.2
2022-08-22T08:39:03.577Z,4173.4
2022-08-22T08:45:00.115Z,4160
2022-08-22T08:50:33.224Z,4177.6
2022-08-22T08:56:20.014Z,4185.8
2022-08-22T09:01:58.551Z,4201.9
2022-08-22T09:07:37.705Z,4181.6
2022-08-22T09:13:14.552Z,4202.9
2022-08-22T09:18:49.449Z,4188.7
2022-08-22T09:24:24.540Z,4182.6
2022-08-22T09:30:05.001Z,4201.1
2022-08-22T09:35:39.893Z,4207.1
2022-08-22T09:41:15.738Z,4194.5
2022-08-22T09:46:51.535Z,4202.6
2022-08-22T09:52:43.508Z,4214
2022-08-22T09:58:23.156Z,4188.2
2022-08-22T10:03:59.547Z,4204.9
2022-08-22T10:09:34.326Z,4206.4
2022-08-22T10:15:10.188Z,4197.7
2022-08-22T10:20:49.070Z,4194.5
2022-08-22T10:26:26.895Z,4207.3
2022-08-22T10:32:15.676Z,4213.6
2022-08-22T10:37:51.768Z,4217.8
2022-08-22T10:44:05.315Z,4210.8
2022-08-22T10:49:38.810Z,4199.1
2022-08-22T10:55:16.074Z,4204.3
2022-08-22T11:00:52.435Z,4201.7
2022-08-22T11:06:29.290Z,4199.6
2022-08-22T11:12:08.897Z,4200.4
2022-08-22T11:17:55.631Z,4216.8
2022-08-22T11:23:30.599Z,4196
2022-08-22T11:29:15.478Z,4207.9
2022-08-22T11:34:51.148Z,4205.3
2022-08-22T11:40:28.159Z,4207.1
2022-08-22T11:46:07.236Z,4204.8
2022-08-22T11:51:59.513Z,4220
2022-08-22T11:57:35.725Z,4206.1
2022-08-22T12:03:14.810Z,4215.3
2022-08-22T12:08:50.131Z,4211.5
2022-08-22T12:14:29.465Z,4209.8
2022-08-22T12:20:20.873Z,4211.5
2022-08-22T12:25:58.784Z,4217.8
2022-08-22T12:31:39.646Z,4218.7
2022-08-22T12:37:15.113Z,4215.6
2022-08-22T12:43:11.841Z,4223
2022-08-22T12:48:48.637Z,4213.6
2022-08-22T12:54:24.305Z,4222.5
2022-08-22T13:00:02.737Z,4208.3
2022-08-22T13:05:43.556Z,4226
2022-08-22T13:11:25.342Z,4223.3
2022-08-22T13:17:24.005Z,4218.8
2022-08-22T13:23:13.274Z,4222.2
2022-08-22T13:29:26.680Z,4218.7
2022-08-22T13:35:32.858Z,4218.2
2022-08-22T13:41:08.842Z,4216.6
2022-08-22T13:47:16.964Z,4227.5
2022-08-22T13:52:56.160Z,4220.3
2022-08-22T13:58:35.080Z,4232.6
2022-08-22T14:04:37.423Z,4226.4
2022-08-22T14:10:17.893Z,4218
2022-08-22T14:15:53.870Z,4230.2
2022-08-22T14:21:41.890Z,4213.3
2022-08-22T14:27:21.153Z,4217.1
2022-08-22T14:33:00.750Z,4228
2022-08-22T14:38:37.348Z,4216.8
2022-08-22T14:44:34.066Z,4225.2
2022-08-22T14:50:13.008Z,4221.2
2022-08-22T14:55:54.356Z,4214.5
2022-08-22T15:01:38.874Z,4215.3
2022-08-22T15:07:17.383Z,4226.4
2022-08-22T15:12:53.214Z,4228.9
2022-08-22T15:18:28.496Z,4229.5
2022-08-22T15:24:04.094Z,4222.8
2022-08-22T15:29:40.900Z,4226.4
2022-08-22T15:35:20.563Z,4220
2022-08-22T15:40:56.476Z,4230.9
2022-08-22T15:46:32.250Z,4218.7
2022-08-22T15:52:13.625Z,4223.3
2022-08-22T15:57:52.575Z,4220.8
2022-08-22T16:03:29.171Z,4233.2
2022-08-22T16:09:05.558Z,4217.3
2022-08-22T16:14:40.287Z,4220
2022-08-22T16:20:23.476Z,4216.8
2022-08-22T16:26:05.526Z,4218.2
2022-08-22T16:31:40.699Z,4211.8
2022-08-22T16:37:15.824Z,4213.6
2022-08-22T16:43:12.861Z,4226.7
2022-08-22T16:48:45.729Z,4225.7
2022-08-22T16:54:20.481Z,4218.5
2022-08-22T16:59:55.278Z,4215.8
2022-08-22T17:05:31.445Z,4210.6
2022-08-22T17:11:10.820Z,4211.5
2022-08-22T17:16:52.095Z,4211.1
2022-08-22T17:22:31.498Z,4212.6
2022-08-22T17:28:07.274Z,4212.6
2022-08-22T17:33:42.137Z,4209.1
2022-08-22T17:39:16.843Z,4204.9
2022-08-22T17:45:16.507Z,4207.3
2022-08-22T17:50:53.911Z,4208.1
2022-08-22T17:56:31.167Z,4205.3
2022-08-22T18:02:06.244Z,4204.4
2022-08-22T18:07:41.183Z,4206.6
2022-08-22T18:13:15.891Z,4203.7
2022-08-22T18:18:51.681Z,4202.9
2022-08-22T18:24:34.444Z,4202.4
2022-08-22T18:30:10.396Z,4201.9
2022-08-22T18:35:55.207Z,4198.9
2022-08-22T18:41:33.304Z,4199.7
2022-08-22T18:47:07.974Z,4197.9
2022-08-22T18:52:45.341Z,4197.4
2022-08-22T18:58:25.679Z,4196
2022-08-22T19:04:00.425Z,4195.5
2022-08-22T19:09:36.195Z,4197.9
2022-08-22T19:15:11.079Z,4197
2022-08-22T19:20:45.887Z,4199.1
2022-08-22T19:26:20.731Z,4198.2
2022-08-22T19:31:57.750Z,4196.9
2022-08-22T19:37:35.226Z,4197
2022-08-22T19:43:31.840Z,4195.2
2022-08-22T19:49:04.592Z,4196.9
2022-08-22T19:54:39.318Z,4196.2
2022-08-22T20:00:15.199Z,4194.4
2022-08-22T20:06:44.532Z,4197.7
2022-08-22T20:12:20.383Z,4194.9
2022-08-22T20:19:10.703Z,4195
2022-08-22T20:24:46.421Z,4195.2
2022-08-22T20:30:46.686Z,4195.2
2022-08-22T20:36:30.273Z,4191.7
2022-08-22T20:42:06.131Z,4192.4
2022-08-22T20:48:30.117Z,4191
2022-08-22T20:54:16.270Z,4192.4
2022-08-22T20:59:52.066Z,4191.7
2022-08-22T21:05:26.997Z,4190.9
2022-08-22T21:11:01.782Z,4188.7
2022-08-22T21:16:36.587Z,4189.3
2022-08-22T21:22:11.523Z,4190.5
2022-08-22T21:27:46.269Z,4191.4
2022-08-22T21:33:25.023Z,4189.2
2022-08-22T21:39:04.264Z,4190.5
2022-08-22T21:45:01.174Z,4186.2
2022-08-22T21:50:33.998Z,4187.7
2022-08-22T21:56:09.838Z,4187.3
2022-08-22T22:01:50.374Z,4186.2
2022-08-22T22:07:25.161Z,4188
2022-08-22T22:13:00.136Z,4186
2022-08-22T22:18:34.985Z,4185.8
2022-08-22T22:24:10.045Z,4184.5
2022-08-22T22:29:45.837Z,4188.5
2022-08-22T22:35:20.560Z,4186.5
2022-08-22T22:40:55.532Z,4183.1
2022-08-22T22:46:31.643Z,4187.2
2022-08-22T22:52:14.194Z,4185.5
2022-08-22T22:58:02.590Z,4185.7
2022-08-22T23:03:38.843Z,4184.8
2022-08-22T23:09:15.393Z,4181.1
2022-08-22T23:14:53.602Z,4182.3
2022-08-22T23:20:28.167Z,4182
2022-08-22T23:26:03.203Z,4185
2022-08-22T23:31:38.401Z,4183.5
2022-08-22T23:37:13.184Z,4184.3
2022-08-22T23:43:09.784Z,4177.8
2022-08-22T23:48:42.382Z,4182.6
2022-08-22T23:54:17.011Z,4182.3
